sensor_id;sensor_type;location;lat;lon;timestamp;P1;durP1;ratioP1;P2;durP2;ratioP2
22515;SDS011;11424;48.860;9.624;2022-12-16T00:01:09;12.9;;;23.8;;
22515;SDS011;11424;48.860;9.624;2022-12-16T00:06:09;13.9;;;25;;
22515;SDS011;11424;48.860;9.624;2022-12-16T00:11:09;15;;;28.6;;
22515;SDS011;11424;48.860;9.624;2022-12-16T00:16:09;12.4;;;22.6;;
22515;SDS011;11424;48.860;9.624;2022-12-16T00:21:09;13;;;25;;
22515;SDS011;11424;48.860;9.624;2022-12-16T00:26:09;14.5;;;26.2;;
22515;SDS011;11424;48.860;9.624;2022-12-16T00:31:09;13.6;;;26;;
22515;SDS011;11424;48.860;9.624;2022-12-16T00:36:09;13.5;;;26.2;;
22515;SDS011;11424;48.860;9.624;2022-12-16T00:41:09;12.3;;;24.9;;
22515;SDS011;11424;48.860;9.624;2022-12-16T00:46:09;12.1;;;23.1;;
22515;SDS011;11424;48.860;9.624;2022-12-16T00:51:09;13.6;;;25.9;;
22515;SDS011;11424;48.860;9.624;2022-12-16T00:56:09;13.6;;;28.4;;
22515;SDS011;11424;48.860;9.624;2022-12-16T01:01:09;13.9;;;26.3;;
22515;SDS011;11424;48.860;9.624;2022-12-16T01:06:09;14;;;26.7;;
22515;SDS011;11424;48.860;9.624;2022-12-16T01:11:09;12.5;;;24.7;;
22515;SDS011;11424;48.860;9.624;2022-12-16T01:16:09;12.1;;;21.6;;
22515;SDS011;11424;48.860;9.624;2022-12-16T01:21:09;12.1;;;24.2;;
22515;SDS011;11424;48.860;9.624;2022-12-16T01:26:09;12.5;;;22.1;;
22515;SDS011;11424;48.860;9.624;2022-12-16T01:31:09;13.6;;;25.3;;
22515;SDS011;11424;48.860;9.624;2022-12-16T01:36:09;13.6;;;25.6;;
22515;SDS011;11424;48.860;9.624;2022-12-16T01:41:09;12.7;;;23.3;;
22515;SDS011;11424;48.860;9.624;2022-12-16T01:46:12;12;;;23.7;;
22515;SDS011;11424;48.860;9.624;2022-12-16T01:51:10;11.8;;;22;;
22515;SDS011;11424;48.860;9.624;2022-12-16T01:56:09;9;;;17.5;;
22515;SDS011;11424;48.860;9.624;2022-12-16T02:01:09;9.3;;;18.3;;
22515;SDS011;11424;48.860;9.624;2022-12-16T02:06:09;9.2;;;17.2;;
22515;SDS011;11424;48.860;9.624;2022-12-16T02:11:13;10.2;;;19.3;;
22515;SDS011;11424;48.860;9.624;2022-12-16T02:16:10;9.8;;;17.1;;
22515;SDS011;11424;48.860;9.624;2022-12-16T02:21:14;8.8;;;15.2;;
22515;SDS011;11424;48.860;9.624;2022-12-16T02:26:15;10.5;;;20.4;;
22515;SDS011;11424;48.860;9.624;2022-12-16T02:31:12;10.9;;;18.9;;
22515;SDS011;11424;48.860;9.624;2022-12-16T02:36:10;15.5;;;27.2;;
22515;SDS011;11424;48.860;9.624;2022-12-16T02:41:10;13.9;;;23.2;;
22515;SDS011;11424;48.860;9.624;2022-12-16T02:46:09;11.4;;;21.8;;
22515;SDS011;11424;48.860;9.624;2022-12-16T02:51:09;12.4;;;22.3;;
22515;SDS011;11424;48.860;9.624;2022-12-16T02:56:12;13.3;;;24.9;;
22515;SDS011;11424;48.860;9.624;2022-12-16T03:01:11;12.3;;;21.6;;
22515;SDS011;11424;48.860;9.624;2022-12-16T03:06:10;13.4;;;28.9;;
22515;SDS011;11424;48.860;9.624;2022-12-16T03:11:09;14.2;;;27.2;;
22515;SDS011;11424;48.860;9.624;2022-12-16T03:16:09;12.5;;;25.1;;
22515;SDS011;11424;48.860;9.624;2022-12-16T03:21:09;13.4;;;26.4;;
22515;SDS011;11424;48.860;9.624;2022-12-16T03:26:11;11;;;21.7;;
22515;SDS011;11424;48.860;9.624;2022-12-16T03:31:12;11.8;;;23.2;;
22515;SDS011;11424;48.860;9.624;2022-12-16T03:36:09;11.9;;;24.2;;
22515;SDS011;11424;48.860;9.624;2022-12-16T03:41:09;13.2;;;27.3;;
22515;SDS011;11424;48.860;9.624;2022-12-16T03:46:09;11.5;;;22.2;;
22515;SDS011;11424;48.860;9.624;2022-12-16T03:51:09;11.2;;;23.3;;
22515;SDS011;11424;48.860;9.624;2022-12-16T03:56:09;15.3;;;28.6;;
22515;SDS011;11424;48.860;9.624;2022-12-16T04:01:09;12.9;;;26.2;;
22515;SDS011;11424;48.860;9.624;2022-12-16T04:06:09;11.3;;;23.2;;
22515;SDS011;11424;48.860;9.624;2022-12-16T04:11:09;10.8;;;20.1;;
22515;SDS011;11424;48.860;9.624;2022-12-16T04:16:09;11.7;;;22.7;;
22515;SDS011;11424;48.860;9.624;2022-12-16T04:21:09;11.1;;;21.2;;
22515;SDS011;11424;48.860;9.624;2022-12-16T04:26:09;11.6;;;22.6;;
22515;SDS011;11424;48.860;9.624;2022-12-16T04:31:09;11.3;;;22.2;;
22515;SDS011;11424;48.860;9.624;2022-12-16T04:36:09;12.1;;;23.4;;
22515;SDS011;11424;48.860;9.624;2022-12-16T04:41:09;11.2;;;21.2;;
22515;SDS011;11424;48.860;9.624;2022-12-16T04:46:09;10.9;;;21.7;;
22515;SDS011;11424;48.860;9.624;2022-12-16T04:51:09;11.7;;;22.3;;
22515;SDS011;11424;48.860;9.624;2022-12-16T04:56:09;11.7;;;23.9;;
22515;SDS011;11424;48.860;9.624;2022-12-16T05:01:09;11.1;;;20.8;;
22515;SDS011;11424;48.860;9.624;2022-12-16T05:06:09;10;;;18.5;;
22515;SDS011;11424;48.860;9.624;2022-12-16T05:11:09;11.8;;;24.5;;
22515;SDS011;11424;48.860;9.624;2022-12-16T05:16:09;11.8;;;24.4;;
22515;SDS011;11424;48.860;9.624;2022-12-16T05:21:09;11.2;;;22;;
22515;SDS011;11424;48.860;9.624;2022-12-16T05:26:09;11.4;;;20.5;;
22515;SDS011;11424;48.860;9.624;2022-12-16T05:31:09;11.8;;;20.7;;
22515;SDS011;11424;48.860;9.624;2022-12-16T05:36:09;11.2;;;21.7;;
22515;SDS011;11424;48.860;9.624;2022-12-16T05:41:09;12.5;;;23.3;;
22515;SDS011;11424;48.860;9.624;2022-12-16T05:46:09;11.6;;;22.5;;
22515;SDS011;11424;48.860;9.624;2022-12-16T05:51:09;11.3;;;22.8;;
22515;SDS011;11424;48.860;9.624;2022-12-16T05:56:09;11.4;;;23.8;;
22515;SDS011;11424;48.860;9.624;2022-12-16T06:01:09;11.4;;;22;;
22515;SDS011;11424;48.860;9.624;2022-12-16T06:06:09;11.3;;;20.5;;
22515;SDS011;11424;48.860;9.624;2022-12-16T06:11:09;10.7;;;22;;
22515;SDS011;11424;48.860;9.624;2022-12-16T06:16:09;11.5;;;21.5;;
22515;SDS011;11424;48.860;9.624;2022-12-16T06:21:09;12.3;;;23.4;;
22515;SDS011;11424;48.860;9.624;2022-12-16T06:26:09;11.6;;;22.6;;
22515;SDS011;11424;48.860;9.624;2022-12-16T06:31:09;13.5;;;24.1;;
22515;SDS011;11424;48.860;9.624;2022-12-16T06:36:09;13.2;;;26;;
22515;SDS011;11424;48.860;9.624;2022-12-16T06:41:09;11.3;;;22.7;;
22515;SDS011;11424;48.860;9.624;2022-12-16T06:46:09;11.7;;;21.1;;
22515;SDS011;11424;48.860;9.624;2022-12-16T06:51:09;14;;;28.8;;
22515;SDS011;11424;48.860;9.624;2022-12-16T06:56:09;14.4;;;29.9;;
22515;SDS011;11424;48.860;9.624;2022-12-16T07:01:14;11.9;;;24;;
22515;SDS011;11424;48.860;9.624;2022-12-16T07:06:09;10.6;;;19.1;;
22515;SDS011;11424;48.860;9.624;2022-12-16T07:11:09;10.9;;;20.1;;
22515;SDS011;11424;48.860;9.624;2022-12-16T07:16:09;11.5;;;24.1;;
22515;SDS011;11424;48.860;9.624;2022-12-16T07:21:09;10.6;;;21.7;;
22515;SDS011;11424;48.860;9.624;2022-12-16T07:26:09;10.9;;;23.5;;
22515;SDS011;11424;48.860;9.624;2022-12-16T07:31:09;9.1;;;18.4;;
22515;SDS011;11424;48.860;9.624;2022-12-16T07:36:09;9.5;;;19.9;;
22515;SDS011;11424;48.860;9.624;2022-12-16T07:41:09;8.5;;;16.7;;
22515;SDS011;11424;48.860;9.624;2022-12-16T07:46:09;8;;;17.3;;
22515;SDS011;11424;48.860;9.624;2022-12-16T07:51:09;7.4;;;14.4;;
22515;SDS011;11424;48.860;9.624;2022-12-16T07:56:09;7.9;;;15.6;;
22515;SDS011;11424;48.860;9.624;2022-12-16T08:01:09;7.4;;;14.7;;
22515;SDS011;11424;48.860;9.624;2022-12-16T08:06:09;7.4;;;13.1;;
22515;SDS011;11424;48.860;9.624;2022-12-16T08:11:09;7.3;;;14.3;;
22515;SDS011;11424;48.860;9.624;2022-12-16T08:16:09;7.3;;;13.4;;
22515;SDS011;11424;48.860;9.624;2022-12-16T08:21:09;7.6;;;16.9;;
22515;SDS011;11424;48.860;9.624;2022-12-16T08:26:09;7.7;;;14.9;;
22515;SDS011;11424;48.860;9.624;2022-12-16T08:31:09;6.8;;;13.5;;
22515;SDS011;11424;48.860;9.624;2022-12-16T08:36:09;6.7;;;12.7;;
22515;SDS011;11424;48.860;9.624;2022-12-16T08:41:09;6.4;;;11.1;;
22515;SDS011;11424;48.860;9.624;2022-12-16T08:46:09;6;;;9.9;;
22515;SDS011;11424;48.860;9.624;2022-12-16T08:51:09;6.3;;;11;;
22515;SDS011;11424;48.860;9.624;2022-12-16T08:56:09;5.7;;;9;;
22515;SDS011;11424;48.860;9.624;2022-12-16T09:01:09;6.2;;;10.7;;
22515;SDS011;11424;48.860;9.624;2022-12-16T09:06:09;7.5;;;13.6;;
22515;SDS011;11424;48.860;9.624;2022-12-16T09:11:09;6.8;;;11.2;;
22515;SDS011;11424;48.860;9.624;2022-12-16T09:16:09;7.4;;;13.6;;
22515;SDS011;11424;48.860;9.624;2022-12-16T09:21:09;7.5;;;12.1;;
22515;SDS011;11424;48.860;9.624;2022-12-16T09:26:09;7.6;;;12.8;;
22515;SDS011;11424;48.860;9.624;2022-12-16T09:31:09;7.2;;;13.3;;
22515;SDS011;11424;48.860;9.624;2022-12-16T09:36:09;6.2;;;11.2;;
22515;SDS011;11424;48.860;9.624;2022-12-16T09:41:18;7.4;;;13.2;;
22515;SDS011;11424;48.860;9.624;2022-12-16T09:46:10;8.3;;;14.5;;
22515;SDS011;11424;48.860;9.624;2022-12-16T09:51:09;7.8;;;12.7;;
22515;SDS011;11424;48.860;9.624;2022-12-16T09:56:13;6.8;;;11.8;;
22515;SDS011;11424;48.860;9.624;2022-12-16T10:01:10;6.9;;;11.4;;
22515;SDS011;11424;48.860;9.624;2022-12-16T10:06:11;7;;;11.7;;
22515;SDS011;11424;48.860;9.624;2022-12-16T10:11:11;7.2;;;13.1;;
22515;SDS011;11424;48.860;9.624;2022-12-16T10:16:10;7;;;13.3;;
22515;SDS011;11424;48.860;9.624;2022-12-16T10:21:10;6.8;;;12;;
22515;SDS011;11424;48.860;9.624;2022-12-16T10:26:10;6.8;;;12;;
22515;SDS011;11424;48.860;9.624;2022-12-16T10:31:11;7.2;;;13.3;;
22515;SDS011;11424;48.860;9.624;2022-12-16T10:36:10;6.6;;;10.3;;
22515;SDS011;11424;48.860;9.624;2022-12-16T10:41:09;7.4;;;12.4;;
22515;SDS011;11424;48.860;9.624;2022-12-16T10:46:11;6.9;;;11.9;;
22515;SDS011;11424;48.860;9.624;2022-12-16T10:51:11;8.2;;;14.6;;
22515;SDS011;11424;48.860;9.624;2022-12-16T10:56:13;6.4;;;10.3;;
22515;SDS011;11424;48.860;9.624;2022-12-16T11:01:19;6.6;;;11.9;;
22515;SDS011;11424;48.860;9.624;2022-12-16T11:06:10;7.4;;;12.7;;
22515;SDS011;11424;48.860;9.624;2022-12-16T11:11:11;7.2;;;12;;
22515;SDS011;11424;48.860;9.624;2022-12-16T11:16:11;7.4;;;12.5;;
22515;SDS011;11424;48.860;9.624;2022-12-16T11:21:11;6.9;;;10.8;;
22515;SDS011;11424;48.860;9.624;2022-12-16T11:26:10;7;;;10.6;;
22515;SDS011;11424;48.860;9.624;2022-12-16T11:31:10;7.8;;;12.6;;
22515;SDS011;11424;48.860;9.624;2022-12-16T11:36:11;9.1;;;15.4;;
22515;SDS011;11424;48.860;9.624;2022-12-16T11:41:13;10;;;17.2;;
22515;SDS011;11424;48.860;9.624;2022-12-16T11:46:11;9.4;;;14.4;;
22515;SDS011;11424;48.860;9.624;2022-12-16T11:51:10;8.6;;;13.5;;
22515;SDS011;11424;48.860;9.624;2022-12-16T11:56:11;7.9;;;12.9;;
22515;SDS011;11424;48.860;9.624;2022-12-16T12:01:10;7.9;;;12.4;;
22515;SDS011;11424;48.860;9.624;2022-12-16T12:06:10;7.2;;;12.3;;
22515;SDS011;11424;48.860;9.624;2022-12-16T12:11:11;6.6;;;10.9;;
22515;SDS011;11424;48.860;9.624;2022-12-16T12:16:10;6.2;;;9.8;;
22515;SDS011;11424;48.860;9.624;2022-12-16T12:21:11;6.2;;;10.1;;
22515;SDS011;11424;48.860;9.624;2022-12-16T12:26:10;7.8;;;12.9;;
22515;SDS011;11424;48.860;9.624;2022-12-16T12:31:13;6.9;;;10.9;;
22515;SDS011;11424;48.860;9.624;2022-12-16T12:36:11;7.5;;;12.2;;
22515;SDS011;11424;48.860;9.624;2022-12-16T12:41:10;6.7;;;10.9;;
22515;SDS011;11424;48.860;9.624;2022-12-16T12:46:11;7.3;;;11.5;;
22515;SDS011;11424;48.860;9.624;2022-12-16T12:51:11;6.3;;;9.7;;
22515;SDS011;11424;48.860;9.624;2022-12-16T12:56:10;7.6;;;12.5;;
22515;SDS011;11424;48.860;9.624;2022-12-16T13:01:09;6.3;;;9.8;;
22515;SDS011;11424;48.860;9.624;2022-12-16T13:06:11;6.7;;;10.3;;
22515;SDS011;11424;48.860;9.624;2022-12-16T13:11:10;7.6;;;11.7;;
22515;SDS011;11424;48.860;9.624;2022-12-16T13:16:10;7.5;;;12.2;;
22515;SDS011;11424;48.860;9.624;2022-12-16T13:21:42;7.2;;;11.8;;
22515;SDS011;11424;48.860;9.624;2022-12-16T13:26:09;8.4;;;13.1;;
22515;SDS011;11424;48.860;9.624;2022-12-16T13:31:09;8.2;;;13.4;;
22515;SDS011;11424;48.860;9.624;2022-12-16T13:36:10;7.8;;;13.5;;
22515;SDS011;11424;48.860;9.624;2022-12-16T13:46:14;8.3;;;16;;
22515;SDS011;11424;48.860;9.624;2022-12-16T13:51:21;9.9;;;19.3;;
22515;SDS011;11424;48.860;9.624;2022-12-16T13:56:09;8.5;;;13.6;;
22515;SDS011;11424;48.860;9.624;2022-12-16T14:01:10;8.1;;;14.1;;
22515;SDS011;11424;48.860;9.624;2022-12-16T14:06:11;7.9;;;13.4;;
22515;SDS011;11424;48.860;9.624;2022-12-16T14:11:13;6.7;;;10.5;;
22515;SDS011;11424;48.860;9.624;2022-12-16T14:16:11;6.5;;;10.3;;
22515;SDS011;11424;48.860;9.624;2022-12-16T14:21:11;6.8;;;10.4;;
22515;SDS011;11424;48.860;9.624;2022-12-16T14:26:10;6.3;;;10.1;;
22515;SDS011;11424;48.860;9.624;2022-12-16T14:31:12;7.2;;;12.4;;
22515;SDS011;11424;48.860;9.624;2022-12-16T14:36:26;6.6;;;9.5;;
22515;SDS011;11424;48.860;9.624;2022-12-16T14:41:10;6.4;;;10;;
22515;SDS011;11424;48.860;9.624;2022-12-16T14:46:21;6.2;;;9.7;;
22515;SDS011;11424;48.860;9.624;2022-12-16T14:51:13;6.5;;;11.4;;
22515;SDS011;11424;48.860;9.624;2022-12-16T14:56:17;6;;;9.7;;
22515;SDS011;11424;48.860;9.624;2022-12-16T15:01:11;5.9;;;9.2;;
22515;SDS011;11424;48.860;9.624;2022-12-16T15:06:10;6.4;;;10.5;;
22515;SDS011;11424;48.860;9.624;2022-12-16T15:11:10;6.3;;;10.2;;
22515;SDS011;11424;48.860;9.624;2022-12-16T15:16:10;6.1;;;10;;
22515;SDS011;11424;48.860;9.624;2022-12-16T15:21:10;6.1;;;9.9;;
22515;SDS011;11424;48.860;9.624;2022-12-16T15:26:15;5.9;;;8.9;;
22515;SDS011;11424;48.860;9.624;2022-12-16T15:31:13;5.6;;;9.5;;
22515;SDS011;11424;48.860;9.624;2022-12-16T15:36:22;6.3;;;10.6;;
22515;SDS011;11424;48.860;9.624;2022-12-16T15:41:16;7.5;;;14.6;;
22515;SDS011;11424;48.860;9.624;2022-12-16T15:46:18;7;;;12.9;;
22515;SDS011;11424;48.860;9.624;2022-12-16T15:51:27;7.4;;;12.7;;
22515;SDS011;11424;48.860;9.624;2022-12-16T15:56:15;6.7;;;11.1;;
22515;SDS011;11424;48.860;9.624;2022-12-16T16:01:10;8.1;;;12.5;;
22515;SDS011;11424;48.860;9.624;2022-12-16T16:06:13;6.5;;;10.3;;
22515;SDS011;11424;48.860;9.624;2022-12-16T16:11:09;7;;;11.9;;
22515;SDS011;11424;48.860;9.624;2022-12-16T16:16:10;6.8;;;12;;
22515;SDS011;11424;48.860;9.624;2022-12-16T16:21:09;7.1;;;11;;
22515;SDS011;11424;48.860;9.624;2022-12-16T16:26:10;7.1;;;11.1;;
22515;SDS011;11424;48.860;9.624;2022-12-16T16:31:09;6.6;;;10.8;;
22515;SDS011;11424;48.860;9.624;2022-12-16T16:36:11;6.5;;;9.6;;
22515;SDS011;11424;48.860;9.624;2022-12-16T16:41:10;7.7;;;11.6;;
22515;SDS011;11424;48.860;9.624;2022-12-16T16:46:14;9.2;;;14.3;;
22515;SDS011;11424;48.860;9.624;2022-12-16T16:51:09;7.8;;;12.5;;
22515;SDS011;11424;48.860;9.624;2022-12-16T16:56:10;7.1;;;10.4;;
22515;SDS011;11424;48.860;9.624;2022-12-16T17:01:10;6.3;;;9.5;;
22515;SDS011;11424;48.860;9.624;2022-12-16T17:06:10;6.7;;;12.2;;
22515;SDS011;11424;48.860;9.624;2022-12-16T17:11:11;8.6;;;17.5;;
22515;SDS011;11424;48.860;9.624;2022-12-16T17:16:10;7.6;;;12.4;;
22515;SDS011;11424;48.860;9.624;2022-12-16T17:21:10;7.8;;;13.7;;
22515;SDS011;11424;48.860;9.624;2022-12-16T17:26:10;7.1;;;13.3;;
22515;SDS011;11424;48.860;9.624;2022-12-16T17:31:10;6.8;;;12.1;;
22515;SDS011;11424;48.860;9.624;2022-12-16T17:36:10;8.5;;;13.6;;
22515;SDS011;11424;48.860;9.624;2022-12-16T17:41:09;10.5;;;17.1;;
22515;SDS011;11424;48.860;9.624;2022-12-16T17:46:10;11.8;;;19.4;;
22515;SDS011;11424;48.860;9.624;2022-12-16T17:51:10;14.8;;;25.1;;
22515;SDS011;11424;48.860;9.624;2022-12-16T17:56:10;15.6;;;22.8;;
22515;SDS011;11424;48.860;9.624;2022-12-16T18:01:10;11.5;;;18.5;;
22515;SDS011;11424;48.860;9.624;2022-12-16T18:06:10;7;;;9.8;;
22515;SDS011;11424;48.860;9.624;2022-12-16T18:11:10;9.1;;;15;;
22515;SDS011;11424;48.860;9.624;2022-12-16T18:16:10;12.2;;;21;;
22515;SDS011;11424;48.860;9.624;2022-12-16T18:21:10;13;;;21.8;;
22515;SDS011;11424;48.860;9.624;2022-12-16T18:26:10;10.5;;;19.2;;
22515;SDS011;11424;48.860;9.624;2022-12-16T18:31:10;8.4;;;15.7;;
22515;SDS011;11424;48.860;9.624;2022-12-16T18:36:10;8.4;;;15.1;;
22515;SDS011;11424;48.860;9.624;2022-12-16T18:41:11;9.8;;;17.9;;
22515;SDS011;11424;48.860;9.624;2022-12-16T18:46:10;9.1;;;16.5;;
22515;SDS011;11424;48.860;9.624;2022-12-16T18:51:10;9.1;;;16.3;;
22515;SDS011;11424;48.860;9.624;2022-12-16T18:56:10;9.7;;;19.2;;
22515;SDS011;11424;48.860;9.624;2022-12-16T19:01:10;9.3;;;16.5;;
22515;SDS011;11424;48.860;9.624;2022-12-16T19:06:10;8.8;;;16.5;;
22515;SDS011;11424;48.860;9.624;2022-12-16T19:11:10;9.3;;;16.9;;
22515;SDS011;11424;48.860;9.624;2022-12-16T19:16:10;9.2;;;15.4;;
22515;SDS011;11424;48.860;9.624;2022-12-16T19:21:11;9.8;;;17.5;;
22515;SDS011;11424;48.860;9.624;2022-12-16T19:26:10;10.9;;;20.3;;
22515;SDS011;11424;48.860;9.624;2022-12-16T19:31:10;10.5;;;20.3;;
22515;SDS011;11424;48.860;9.624;2022-12-16T19:36:10;9.3;;;17.5;;
22515;SDS011;11424;48.860;9.624;2022-12-16T19:41:12;9.6;;;18;;
22515;SDS011;11424;48.860;9.624;2022-12-16T19:46:10;8.5;;;14.9;;
22515;SDS011;11424;48.860;9.624;2022-12-16T19:51:10;8.4;;;13.7;;
22515;SDS011;11424;48.860;9.624;2022-12-16T19:56:10;9.5;;;17.9;;
22515;SDS011;11424;48.860;9.624;2022-12-16T20:01:10;9.8;;;18.7;;
22515;SDS011;11424;48.860;9.624;2022-12-16T20:06:10;9.4;;;17.6;;
22515;SDS011;11424;48.860;9.624;2022-12-16T20:11:10;9;;;18.1;;
22515;SDS011;11424;48.860;9.624;2022-12-16T20:16:10;8.2;;;13.2;;
22515;SDS011;11424;48.860;9.624;2022-12-16T20:21:10;9.3;;;18.6;;
22515;SDS011;11424;48.860;9.624;2022-12-16T20:26:10;9.1;;;17;;
22515;SDS011;11424;48.860;9.624;2022-12-16T20:31:10;9.7;;;17.1;;
22515;SDS011;11424;48.860;9.624;2022-12-16T20:36:10;8.9;;;16.4;;
22515;SDS011;11424;48.860;9.624;2022-12-16T20:41:10;9.6;;;18;;
22515;SDS011;11424;48.860;9.624;2022-12-16T20:46:10;11.3;;;19.9;;
22515;SDS011;11424;48.860;9.624;2022-12-16T20:51:10;10.9;;;20.5;;
22515;SDS011;11424;48.860;9.624;2022-12-16T20:56:10;11;;;20.9;;
22515;SDS011;11424;48.860;9.624;2022-12-16T21:01:10;10.5;;;20.3;;
22515;SDS011;11424;48.860;9.624;2022-12-16T21:06:10;9.1;;;16.9;;
22515;SDS011;11424;48.860;9.624;2022-12-16T21:11:10;9.7;;;17.8;;
22515;SDS011;11424;48.860;9.624;2022-12-16T21:16:10;10.2;;;18.8;;
22515;SDS011;11424;48.860;9.624;2022-12-16T21:21:10;9.3;;;17;;
22515;SDS011;11424;48.860;9.624;2022-12-16T21:26:10;9.2;;;16.4;;
22515;SDS011;11424;48.860;9.624;2022-12-16T21:31:10;9.9;;;17.5;;
22515;SDS011;11424;48.860;9.624;2022-12-16T21:36:10;10.3;;;19.4;;
22515;SDS011;11424;48.860;9.624;2022-12-16T21:41:10;9.1;;;17.3;;
22515;SDS011;11424;48.860;9.624;2022-12-16T21:46:10;10.9;;;21.8;;
22515;SDS011;11424;48.860;9.624;2022-12-16T21:51:10;9.9;;;19.1;;
22515;SDS011;11424;48.860;9.624;2022-12-16T21:56:10;10.8;;;21.3;;
22515;SDS011;11424;48.860;9.624;2022-12-16T22:01:10;10.8;;;21.6;;
22515;SDS011;11424;48.860;9.624;2022-12-16T22:06:10;11.2;;;23.6;;
22515;SDS011;11424;48.860;9.624;2022-12-16T22:11:10;12.2;;;27.4;;
22515;SDS011;11424;48.860;9.624;2022-12-16T22:16:10;12.1;;;25.3;;
22515;SDS011;11424;48.860;9.624;2022-12-16T22:21:10;13.4;;;30.2;;
22515;SDS011;11424;48.860;9.624;2022-12-16T22:26:10;11.8;;;25.6;;
22515;SDS011;11424;48.860;9.624;2022-12-16T22:31:10;13.6;;;29.2;;
22515;SDS011;11424;48.860;9.624;2022-12-16T22:36:10;12.9;;;27.5;;
22515;SDS011;11424;48.860;9.624;2022-12-16T22:41:10;13.1;;;29.3;;
22515;SDS011;11424;48.860;9.624;2022-12-16T22:46:10;12.6;;;26.8;;
22515;SDS011;11424;48.860;9.624;2022-12-16T22:51:10;11.6;;;24.5;;
22515;SDS011;11424;48.860;9.624;2022-12-16T22:56:10;13.9;;;33.1;;
22515;SDS011;11424;48.860;9.624;2022-12-16T23:01:10;13.8;;;32.1;;
22515;SDS011;11424;48.860;9.624;2022-12-16T23:06:10;14.9;;;33.2;;
22515;SDS011;11424;48.860;9.624;2022-12-16T23:11:14;14;;;31.4;;
22515;SDS011;11424;48.860;9.624;2022-12-16T23:16:10;12.4;;;27.7;;
22515;SDS011;11424;48.860;9.624;2022-12-16T23:21:12;14.5;;;32.4;;
22515;SDS011;11424;48.860;9.624;2022-12-16T23:26:10;14.3;;;33.5;;
22515;SDS011;11424;48.860;9.624;2022-12-16T23:31:10;14;;;33.7;;
22515;SDS011;11424;48.860;9.624;2022-12-16T23:36:10;14.6;;;33.7;;
22515;SDS011;11424;48.860;9.624;2022-12-16T23:41:10;15.1;;;36.1;;
22515;SDS011;11424;48.860;9.624;2022-12-16T23:46:10;15.2;;;35.9;;
22515;SDS011;11424;48.860;9.624;2022-12-16T23:51:10;14.4;;;34.2;;
22515;SDS011;11424;48.860;9.624;2022-12-16T23:56:10;16.5;;;41.5;;
